sensor_id;sensor_type;location;lat;lon;timestamp;P1;durP1;ratioP1;P2;durP2;ratioP2
44098;SDS011;29762;50.086;14.364;2023-04-24T00:03:34;2.83;;;2.40;;
44098;SDS011;29762;50.086;14.364;2023-04-24T00:08:54;4.10;;;2.75;;
44098;SDS011;29762;50.086;14.364;2023-04-24T00:14:14;2.67;;;2.35;;
44098;SDS011;29762;50.086;14.364;2023-04-24T00:19:33;3.30;;;2.53;;
44098;SDS011;29762;50.086;14.364;2023-04-24T00:24:53;2.92;;;2.40;;
44098;SDS011;29762;50.086;14.364;2023-04-24T00:30:14;2.72;;;2.30;;
44098;SDS011;29762;50.086;14.364;2023-04-24T00:35:33;2.53;;;2.20;;
44098;SDS011;29762;50.086;14.364;2023-04-24T00:40:53;3.13;;;2.38;;
44098;SDS011;29762;50.086;14.364;2023-04-24T00:46:13;3.20;;;2.55;;
44098;SDS011;29762;50.086;14.364;2023-04-24T00:51:33;2.85;;;2.30;;
44098;SDS011;29762;50.086;14.364;2023-04-24T00:56:53;3.17;;;2.47;;
44098;SDS011;29762;50.086;14.364;2023-04-24T01:02:13;3.22;;;2.47;;
44098;SDS011;29762;50.086;14.364;2023-04-24T01:07:34;2.67;;;2.47;;
44098;SDS011;29762;50.086;14.364;2023-04-24T01:12:53;2.38;;;2.00;;
44098;SDS011;29762;50.086;14.364;2023-04-24T01:18:13;2.63;;;2.42;;
44098;SDS011;29762;50.086;14.364;2023-04-24T01:23:33;3.13;;;2.30;;
44098;SDS011;29762;50.086;14.364;2023-04-24T01:28:53;2.30;;;2.10;;
44098;SDS011;29762;50.086;14.364;2023-04-24T01:34:13;2.78;;;2.40;;
44098;SDS011;29762;50.086;14.364;2023-04-24T01:39:33;2.47;;;2.28;;
44098;SDS011;29762;50.086;14.364;2023-04-24T01:44:53;2.92;;;2.58;;
44098;SDS011;29762;50.086;14.364;2023-04-24T01:50:13;2.67;;;2.13;;
44098;SDS011;29762;50.086;14.364;2023-04-24T01:55:32;2.20;;;2.00;;
44098;SDS011;29762;50.086;14.364;2023-04-24T02:00:52;2.60;;;2.40;;
44098;SDS011;29762;50.086;14.364;2023-04-24T02:06:13;2.20;;;2.00;;
44098;SDS011;29762;50.086;14.364;2023-04-24T02:11:32;2.72;;;2.38;;
44098;SDS011;29762;50.086;14.364;2023-04-24T02:16:51;2.30;;;2.03;;
44098;SDS011;29762;50.086;14.364;2023-04-24T02:22:12;2.75;;;2.20;;
44098;SDS011;29762;50.086;14.364;2023-04-24T02:27:31;3.05;;;2.03;;
44098;SDS011;29762;50.086;14.364;2023-04-24T02:32:51;2.85;;;2.15;;
44098;SDS011;29762;50.086;14.364;2023-04-24T02:38:11;3.42;;;2.30;;
44098;SDS011;29762;50.086;14.364;2023-04-24T02:43:30;2.70;;;2.40;;
44098;SDS011;29762;50.086;14.364;2023-04-24T02:48:50;2.15;;;1.95;;
44098;SDS011;29762;50.086;14.364;2023-04-24T02:54:09;2.38;;;2.17;;
44098;SDS011;29762;50.086;14.364;2023-04-24T02:59:31;2.30;;;2.10;;
44098;SDS011;29762;50.086;14.364;2023-04-24T03:04:51;2.20;;;2.00;;
44098;SDS011;29762;50.086;14.364;2023-04-24T03:10:10;2.58;;;2.38;;
44098;SDS011;29762;50.086;14.364;2023-04-24T03:15:30;2.35;;;2.15;;
44098;SDS011;29762;50.086;14.364;2023-04-24T03:20:50;2.47;;;2.22;;
44098;SDS011;29762;50.086;14.364;2023-04-24T03:26:10;2.42;;;1.83;;
44098;SDS011;29762;50.086;14.364;2023-04-24T03:31:35;2.33;;;1.95;;
44098;SDS011;29762;50.086;14.364;2023-04-24T03:36:55;2.53;;;1.90;;
44098;SDS011;29762;50.086;14.364;2023-04-24T03:42:16;2.25;;;2.05;;
44098;SDS011;29762;50.086;14.364;2023-04-24T03:47:43;2.28;;;2.08;;
44098;SDS011;29762;50.086;14.364;2023-04-24T03:53:03;2.72;;;2.20;;
44098;SDS011;29762;50.086;14.364;2023-04-24T03:58:29;2.30;;;2.08;;
44098;SDS011;29762;50.086;14.364;2023-04-24T04:03:49;2.53;;;2.10;;
44098;SDS011;29762;50.086;14.364;2023-04-24T04:09:12;2.08;;;1.90;;
44098;SDS011;29762;50.086;14.364;2023-04-24T04:14:32;2.20;;;2.00;;
44098;SDS011;29762;50.086;14.364;2023-04-24T04:19:52;2.10;;;1.90;;
44098;SDS011;29762;50.086;14.364;2023-04-24T04:25:11;2.55;;;1.88;;
44098;SDS011;29762;50.086;14.364;2023-04-24T04:30:33;2.08;;;1.90;;
44098;SDS011;29762;50.086;14.364;2023-04-24T04:35:56;1.80;;;1.70;;
44098;SDS011;29762;50.086;14.364;2023-04-24T04:41:20;2.63;;;1.58;;
44098;SDS011;29762;50.086;14.364;2023-04-24T04:46:40;2.28;;;1.67;;
44098;SDS011;29762;50.086;14.364;2023-04-24T04:52:16;1.77;;;1.67;;
44098;SDS011;29762;50.086;14.364;2023-04-24T04:57:37;2.20;;;2.00;;
44098;SDS011;29762;50.086;14.364;2023-04-24T05:02:57;2.60;;;1.95;;
44098;SDS011;29762;50.086;14.364;2023-04-24T05:08:17;1.98;;;1.73;;
44098;SDS011;29762;50.086;14.364;2023-04-24T05:13:37;3.28;;;2.13;;
44098;SDS011;29762;50.086;14.364;2023-04-24T05:19:00;1.80;;;1.60;;
44098;SDS011;29762;50.086;14.364;2023-04-24T05:24:24;2.00;;;1.73;;
44098;SDS011;29762;50.086;14.364;2023-04-24T05:30:00;1.50;;;1.40;;
44098;SDS011;29762;50.086;14.364;2023-04-24T05:35:19;2.08;;;1.70;;
44098;SDS011;29762;50.086;14.364;2023-04-24T05:40:39;3.45;;;1.90;;
44098;SDS011;29762;50.086;14.364;2023-04-24T05:45:59;3.08;;;1.70;;
44098;SDS011;29762;50.086;14.364;2023-04-24T05:51:19;1.50;;;1.40;;
44098;SDS011;29762;50.086;14.364;2023-04-24T05:56:39;1.58;;;1.48;;
44098;SDS011;29762;50.086;14.364;2023-04-24T06:02:00;2.75;;;1.77;;
44098;SDS011;29762;50.086;14.364;2023-04-24T06:07:19;3.05;;;1.77;;
44098;SDS011;29762;50.086;14.364;2023-04-24T06:12:40;2.00;;;1.80;;
44098;SDS011;29762;50.086;14.364;2023-04-24T06:18:05;3.08;;;1.77;;
44098;SDS011;29762;50.086;14.364;2023-04-24T06:23:25;1.92;;;1.67;;
44098;SDS011;29762;50.086;14.364;2023-04-24T06:28:44;1.70;;;1.60;;
44098;SDS011;29762;50.086;14.364;2023-04-24T06:34:05;1.83;;;1.73;;
44098;SDS011;29762;50.086;14.364;2023-04-24T06:39:24;4.32;;;2.00;;
44098;SDS011;29762;50.086;14.364;2023-04-24T06:44:44;1.70;;;1.60;;
44098;SDS011;29762;50.086;14.364;2023-04-24T06:50:04;1.77;;;1.50;;
44098;SDS011;29762;50.086;14.364;2023-04-24T06:55:24;1.60;;;1.50;;
44098;SDS011;29762;50.086;14.364;2023-04-24T07:00:44;2.05;;;1.70;;
44098;SDS011;29762;50.086;14.364;2023-04-24T07:06:03;1.83;;;1.48;;
44098;SDS011;29762;50.086;14.364;2023-04-24T07:11:24;1.73;;;1.40;;
44098;SDS011;29762;50.086;14.364;2023-04-24T07:16:43;2.25;;;1.73;;
44098;SDS011;29762;50.086;14.364;2023-04-24T07:22:03;1.60;;;1.50;;
44098;SDS011;29762;50.086;14.364;2023-04-24T07:27:22;1.83;;;1.50;;
44098;SDS011;29762;50.086;14.364;2023-04-24T07:32:41;4.47;;;1.70;;
44098;SDS011;29762;50.086;14.364;2023-04-24T07:38:01;2.13;;;1.63;;
44098;SDS011;29762;50.086;14.364;2023-04-24T07:43:20;2.33;;;1.70;;
44098;SDS011;29762;50.086;14.364;2023-04-24T07:48:40;1.83;;;1.50;;
44098;SDS011;29762;50.086;14.364;2023-04-24T07:54:00;1.58;;;1.48;;
44098;SDS011;29762;50.086;14.364;2023-04-24T07:59:19;1.60;;;1.50;;
44098;SDS011;29762;50.086;14.364;2023-04-24T08:04:39;4.40;;;1.60;;
44098;SDS011;29762;50.086;14.364;2023-04-24T08:10:00;2.75;;;1.40;;
44098;SDS011;29762;50.086;14.364;2023-04-24T08:15:19;5.32;;;1.70;;
44098;SDS011;29762;50.086;14.364;2023-04-24T08:20:39;1.70;;;1.60;;
44098;SDS011;29762;50.086;14.364;2023-04-24T08:25:59;5.47;;;1.30;;
44098;SDS011;29762;50.086;14.364;2023-04-24T08:31:18;2.28;;;1.50;;
44098;SDS011;29762;50.086;14.364;2023-04-24T08:36:37;1.52;;;1.30;;
44098;SDS011;29762;50.086;14.364;2023-04-24T08:41:57;4.10;;;1.73;;
44098;SDS011;29762;50.086;14.364;2023-04-24T08:47:24;2.42;;;1.50;;
44098;SDS011;29762;50.086;14.364;2023-04-24T08:52:45;1.50;;;1.15;;
44098;SDS011;29762;50.086;14.364;2023-04-24T08:58:06;4.47;;;1.38;;
44098;SDS011;29762;50.086;14.364;2023-04-24T09:03:27;2.88;;;1.33;;
44098;SDS011;29762;50.086;14.364;2023-04-24T09:08:47;3.78;;;1.40;;
44098;SDS011;29762;50.086;14.364;2023-04-24T09:14:09;1.88;;;1.35;;
44098;SDS011;29762;50.086;14.364;2023-04-24T09:19:29;4.10;;;1.25;;
44098;SDS011;29762;50.086;14.364;2023-04-24T09:24:48;1.88;;;1.48;;
44098;SDS011;29762;50.086;14.364;2023-04-24T09:30:22;1.48;;;1.38;;
44098;SDS011;29762;50.086;14.364;2023-04-24T09:35:42;3.50;;;1.23;;
44098;SDS011;29762;50.086;14.364;2023-04-24T09:41:13;1.40;;;1.30;;
44098;SDS011;29762;50.086;14.364;2023-04-24T09:46:33;1.40;;;1.30;;
44098;SDS011;29762;50.086;14.364;2023-04-24T09:52:05;6.55;;;1.42;;
44098;SDS011;29762;50.086;14.364;2023-04-24T09:57:26;1.35;;;1.20;;
44098;SDS011;29762;50.086;14.364;2023-04-24T10:02:49;3.20;;;1.23;;
44098;SDS011;29762;50.086;14.364;2023-04-24T10:08:09;1.38;;;1.27;;
44098;SDS011;29762;50.086;14.364;2023-04-24T10:13:31;1.50;;;1.13;;
44098;SDS011;29762;50.086;14.364;2023-04-24T10:18:51;1.40;;;1.30;;
44098;SDS011;29762;50.086;14.364;2023-04-24T10:24:12;1.50;;;1.30;;
44098;SDS011;29762;50.086;14.364;2023-04-24T10:29:33;1.40;;;1.08;;
44098;SDS011;29762;50.086;14.364;2023-04-24T10:34:55;1.65;;;1.40;;
44098;SDS011;29762;50.086;14.364;2023-04-24T10:40:18;1.60;;;1.15;;
44098;SDS011;29762;50.086;14.364;2023-04-24T10:45:39;1.58;;;1.20;;
44098;SDS011;29762;50.086;14.364;2023-04-24T10:50:59;1.20;;;1.10;;
44098;SDS011;29762;50.086;14.364;2023-04-24T10:56:18;1.42;;;1.10;;
44098;SDS011;29762;50.086;14.364;2023-04-24T11:01:38;1.15;;;0.98;;
44098;SDS011;29762;50.086;14.364;2023-04-24T11:06:58;8.43;;;1.10;;
44098;SDS011;29762;50.086;14.364;2023-04-24T11:12:17;2.35;;;1.30;;
44098;SDS011;29762;50.086;14.364;2023-04-24T11:17:38;2.75;;;1.30;;
44098;SDS011;29762;50.086;14.364;2023-04-24T11:23:03;6.68;;;1.13;;
44098;SDS011;29762;50.086;14.364;2023-04-24T11:28:23;2.92;;;1.00;;
44098;SDS011;29762;50.086;14.364;2023-04-24T11:33:43;2.20;;;1.10;;
44098;SDS011;29762;50.086;14.364;2023-04-24T11:39:03;1.00;;;0.60;;
44098;SDS011;29762;50.086;14.364;2023-04-24T11:44:23;2.70;;;0.80;;
44098;SDS011;29762;50.086;14.364;2023-04-24T11:49:43;1.10;;;0.80;;
44098;SDS011;29762;50.086;14.364;2023-04-24T11:55:04;2.83;;;0.70;;
44098;SDS011;29762;50.086;14.364;2023-04-24T12:00:26;3.15;;;0.95;;
44098;SDS011;29762;50.086;14.364;2023-04-24T12:05:50;3.25;;;0.57;;
44098;SDS011;29762;50.086;14.364;2023-04-24T12:11:10;0.88;;;0.70;;
44098;SDS011;29762;50.086;14.364;2023-04-24T12:16:31;4.05;;;1.00;;
44098;SDS011;29762;50.086;14.364;2023-04-24T12:22:05;0.95;;;0.80;;
44098;SDS011;29762;50.086;14.364;2023-04-24T12:27:25;9.05;;;1.02;;
44098;SDS011;29762;50.086;14.364;2023-04-24T12:32:46;6.45;;;0.85;;
44098;SDS011;29762;50.086;14.364;2023-04-24T12:38:15;2.47;;;0.50;;
44098;SDS011;29762;50.086;14.364;2023-04-24T12:43:35;3.97;;;0.68;;
44098;SDS011;29762;50.086;14.364;2023-04-24T12:48:54;1.60;;;0.70;;
44098;SDS011;29762;50.086;14.364;2023-04-24T12:54:14;6.75;;;0.68;;
44098;SDS011;29762;50.086;14.364;2023-04-24T12:59:33;1.70;;;0.68;;
44098;SDS011;29762;50.086;14.364;2023-04-24T13:04:53;1.70;;;0.73;;
44098;SDS011;29762;50.086;14.364;2023-04-24T13:10:13;2.15;;;0.70;;
44098;SDS011;29762;50.086;14.364;2023-04-24T13:15:33;9.02;;;0.80;;
44098;SDS011;29762;50.086;14.364;2023-04-24T13:20:53;2.90;;;0.73;;
44098;SDS011;29762;50.086;14.364;2023-04-24T13:26:12;2.50;;;0.73;;
44098;SDS011;29762;50.086;14.364;2023-04-24T13:31:31;2.42;;;0.70;;
44098;SDS011;29762;50.086;14.364;2023-04-24T13:36:52;1.55;;;0.60;;
44098;SDS011;29762;50.086;14.364;2023-04-24T13:42:12;0.50;;;0.50;;
44098;SDS011;29762;50.086;14.364;2023-04-24T13:47:32;1.42;;;0.70;;
44098;SDS011;29762;50.086;14.364;2023-04-24T13:52:51;1.58;;;0.60;;
44098;SDS011;29762;50.086;14.364;2023-04-24T13:58:10;1.95;;;0.60;;
44098;SDS011;29762;50.086;14.364;2023-04-24T14:03:30;0.70;;;0.50;;
44098;SDS011;29762;50.086;14.364;2023-04-24T14:08:50;3.92;;;0.50;;
44098;SDS011;29762;50.086;14.364;2023-04-24T14:14:10;0.82;;;0.50;;
44098;SDS011;29762;50.086;14.364;2023-04-24T14:19:29;1.25;;;0.57;;
44098;SDS011;29762;50.086;14.364;2023-04-24T14:24:48;2.13;;;0.63;;
44098;SDS011;29762;50.086;14.364;2023-04-24T14:30:08;1.30;;;0.70;;
44098;SDS011;29762;50.086;14.364;2023-04-24T14:35:28;0.70;;;0.60;;
44098;SDS011;29762;50.086;14.364;2023-04-24T14:40:50;0.47;;;0.47;;
44098;SDS011;29762;50.086;14.364;2023-04-24T14:46:09;0.90;;;0.50;;
44098;SDS011;29762;50.086;14.364;2023-04-24T14:51:29;0.68;;;0.40;;
44098;SDS011;29762;50.086;14.364;2023-04-24T14:56:49;0.63;;;0.50;;
44098;SDS011;29762;50.086;14.364;2023-04-24T15:02:09;1.08;;;0.50;;
44098;SDS011;29762;50.086;14.364;2023-04-24T15:07:29;1.67;;;0.50;;
44098;SDS011;29762;50.086;14.364;2023-04-24T15:12:48;1.48;;;0.65;;
44098;SDS011;29762;50.086;14.364;2023-04-24T15:18:08;2.35;;;0.60;;
44098;SDS011;29762;50.086;14.364;2023-04-24T15:23:30;2.10;;;0.50;;
44098;SDS011;29762;50.086;14.364;2023-04-24T15:28:50;3.55;;;0.65;;
44098;SDS011;29762;50.086;14.364;2023-04-24T15:34:10;7.10;;;0.77;;
44098;SDS011;29762;50.086;14.364;2023-04-24T15:39:30;0.73;;;0.55;;
44098;SDS011;29762;50.086;14.364;2023-04-24T15:44:50;3.05;;;0.80;;
44098;SDS011;29762;50.086;14.364;2023-04-24T15:50:09;5.43;;;0.88;;
44098;SDS011;29762;50.086;14.364;2023-04-24T15:55:29;1.25;;;0.70;;
44098;SDS011;29762;50.086;14.364;2023-04-24T16:00:49;4.68;;;0.80;;
44098;SDS011;29762;50.086;14.364;2023-04-24T16:06:08;0.77;;;0.75;;
44098;SDS011;29762;50.086;14.364;2023-04-24T16:11:28;1.70;;;0.75;;
44098;SDS011;29762;50.086;14.364;2023-04-24T16:16:48;1.40;;;0.90;;
44098;SDS011;29762;50.086;14.364;2023-04-24T16:22:09;1.05;;;0.80;;
44098;SDS011;29762;50.086;14.364;2023-04-24T16:27:29;5.47;;;0.80;;
44098;SDS011;29762;50.086;14.364;2023-04-24T16:32:48;2.53;;;0.90;;
44098;SDS011;29762;50.086;14.364;2023-04-24T16:38:08;2.05;;;0.80;;
44098;SDS011;29762;50.086;14.364;2023-04-24T16:43:27;1.40;;;0.77;;
44098;SDS011;29762;50.086;14.364;2023-04-24T16:48:47;1.00;;;0.57;;
44098;SDS011;29762;50.086;14.364;2023-04-24T16:54:06;1.65;;;0.70;;
44098;SDS011;29762;50.086;14.364;2023-04-24T16:59:25;1.05;;;0.73;;
44098;SDS011;29762;50.086;14.364;2023-04-24T17:04:46;1.35;;;0.90;;
44098;SDS011;29762;50.086;14.364;2023-04-24T17:10:06;0.93;;;0.73;;
44098;SDS011;29762;50.086;14.364;2023-04-24T17:15:27;1.15;;;0.75;;
44098;SDS011;29762;50.086;14.364;2023-04-24T17:20:46;0.70;;;0.70;;
44098;SDS011;29762;50.086;14.364;2023-04-24T17:26:06;1.33;;;0.90;;
44098;SDS011;29762;50.086;14.364;2023-04-24T17:31:25;0.68;;;0.68;;
44098;SDS011;29762;50.086;14.364;2023-04-24T17:36:45;2.92;;;0.80;;
44098;SDS011;29762;50.086;14.364;2023-04-24T17:42:04;1.55;;;0.60;;
44098;SDS011;29762;50.086;14.364;2023-04-24T17:47:24;1.90;;;0.80;;
44098;SDS011;29762;50.086;14.364;2023-04-24T17:52:45;0.65;;;0.55;;
44098;SDS011;29762;50.086;14.364;2023-04-24T17:58:05;1.67;;;0.80;;
44098;SDS011;29762;50.086;14.364;2023-04-24T18:03:25;1.00;;;0.60;;
44098;SDS011;29762;50.086;14.364;2023-04-24T18:08:44;2.15;;;0.80;;
44098;SDS011;29762;50.086;14.364;2023-04-24T18:14:04;1.13;;;0.73;;
44098;SDS011;29762;50.086;14.364;2023-04-24T18:19:23;1.77;;;0.68;;
44098;SDS011;29762;50.086;14.364;2023-04-24T18:24:43;1.13;;;0.80;;
44098;SDS011;29762;50.086;14.364;2023-04-24T18:30:03;1.55;;;0.77;;
44098;SDS011;29762;50.086;14.364;2023-04-24T18:35:23;1.38;;;0.70;;
44098;SDS011;29762;50.086;14.364;2023-04-24T18:40:43;3.38;;;0.80;;
44098;SDS011;29762;50.086;14.364;2023-04-24T18:46:02;0.70;;;0.70;;
44098;SDS011;29762;50.086;14.364;2023-04-24T18:51:22;0.95;;;0.80;;
44098;SDS011;29762;50.086;14.364;2023-04-24T18:56:42;1.23;;;0.90;;
44098;SDS011;29762;50.086;14.364;2023-04-24T19:02:01;0.73;;;0.73;;
44098;SDS011;29762;50.086;14.364;2023-04-24T19:07:21;0.70;;;0.70;;
44098;SDS011;29762;50.086;14.364;2023-04-24T19:12:40;1.38;;;0.77;;
44098;SDS011;29762;50.086;14.364;2023-04-24T19:18:00;2.95;;;0.80;;
44098;SDS011;29762;50.086;14.364;2023-04-24T19:23:20;0.90;;;0.70;;
44098;SDS011;29762;50.086;14.364;2023-04-24T19:28:40;1.15;;;0.80;;
44098;SDS011;29762;50.086;14.364;2023-04-24T19:34:00;0.98;;;0.60;;
44098;SDS011;29762;50.086;14.364;2023-04-24T19:39:20;1.35;;;0.70;;
44098;SDS011;29762;50.086;14.364;2023-04-24T19:44:39;0.70;;;0.68;;
44098;SDS011;29762;50.086;14.364;2023-04-24T19:49:58;0.73;;;0.63;;
44098;SDS011;29762;50.086;14.364;2023-04-24T19:55:18;1.10;;;0.77;;
44098;SDS011;29762;50.086;14.364;2023-04-24T20:00:38;1.33;;;0.80;;
44098;SDS011;29762;50.086;14.364;2023-04-24T20:05:59;1.48;;;0.70;;
44098;SDS011;29762;50.086;14.364;2023-04-24T20:11:19;1.58;;;0.70;;
44098;SDS011;29762;50.086;14.364;2023-04-24T20:16:39;1.35;;;0.60;;
44098;SDS011;29762;50.086;14.364;2023-04-24T20:21:59;1.13;;;0.70;;
44098;SDS011;29762;50.086;14.364;2023-04-24T20:27:19;1.15;;;0.80;;
44098;SDS011;29762;50.086;14.364;2023-04-24T20:32:39;2.40;;;0.80;;
44098;SDS011;29762;50.086;14.364;2023-04-24T20:37:59;0.82;;;0.80;;
44098;SDS011;29762;50.086;14.364;2023-04-24T20:43:20;2.00;;;0.80;;
44098;SDS011;29762;50.086;14.364;2023-04-24T20:48:41;1.05;;;0.73;;
44098;SDS011;29762;50.086;14.364;2023-04-24T20:54:00;2.35;;;1.00;;
44098;SDS011;29762;50.086;14.364;2023-04-24T20:59:20;0.80;;;0.68;;
44098;SDS011;29762;50.086;14.364;2023-04-24T21:04:40;0.60;;;0.55;;
44098;SDS011;29762;50.086;14.364;2023-04-24T21:09:59;1.13;;;0.70;;
44098;SDS011;29762;50.086;14.364;2023-04-24T21:15:18;0.70;;;0.70;;
44098;SDS011;29762;50.086;14.364;2023-04-24T21:20:37;1.08;;;0.75;;
44098;SDS011;29762;50.086;14.364;2023-04-24T21:25:57;1.15;;;0.70;;
44098;SDS011;29762;50.086;14.364;2023-04-24T21:31:17;0.63;;;0.63;;
44098;SDS011;29762;50.086;14.364;2023-04-24T21:36:36;0.70;;;0.68;;
44098;SDS011;29762;50.086;14.364;2023-04-24T21:41:55;1.77;;;0.90;;
44098;SDS011;29762;50.086;14.364;2023-04-24T21:47:16;0.80;;;0.70;;
44098;SDS011;29762;50.086;14.364;2023-04-24T21:52:35;0.77;;;0.75;;
44098;SDS011;29762;50.086;14.364;2023-04-24T21:57:55;1.33;;;0.80;;
44098;SDS011;29762;50.086;14.364;2023-04-24T22:03:15;0.50;;;0.50;;
44098;SDS011;29762;50.086;14.364;2023-04-24T22:08:35;1.05;;;0.85;;
44098;SDS011;29762;50.086;14.364;2023-04-24T22:13:54;1.30;;;0.80;;
44098;SDS011;29762;50.086;14.364;2023-04-24T22:19:14;0.63;;;0.50;;
44098;SDS011;29762;50.086;14.364;2023-04-24T22:24:34;1.52;;;0.70;;
44098;SDS011;29762;50.086;14.364;2023-04-24T22:29:54;1.08;;;0.70;;
44098;SDS011;29762;50.086;14.364;2023-04-24T22:35:14;0.60;;;0.60;;
44098;SDS011;29762;50.086;14.364;2023-04-24T22:40:34;2.90;;;0.90;;
44098;SDS011;29762;50.086;14.364;2023-04-24T22:45:54;2.45;;;1.02;;
44098;SDS011;29762;50.086;14.364;2023-04-24T22:51:14;1.45;;;0.80;;
44098;SDS011;29762;50.086;14.364;2023-04-24T22:56:35;1.10;;;0.80;;
44098;SDS011;29762;50.086;14.364;2023-04-24T23:01:56;1.70;;;0.80;;
44098;SDS011;29762;50.086;14.364;2023-04-24T23:07:17;1.83;;;0.93;;
44098;SDS011;29762;50.086;14.364;2023-04-24T23:12:36;1.58;;;0.90;;
44098;SDS011;29762;50.086;14.364;2023-04-24T23:17:56;1.65;;;0.93;;
44098;SDS011;29762;50.086;14.364;2023-04-24T23:23:15;1.08;;;0.80;;
44098;SDS011;29762;50.086;14.364;2023-04-24T23:28:35;1.33;;;0.80;;
44098;SDS011;29762;50.086;14.364;2023-04-24T23:33:55;1.13;;;0.73;;
44098;SDS011;29762;50.086;14.364;2023-04-24T23:39:15;0.93;;;0.75;;
44098;SDS011;29762;50.086;14.364;2023-04-24T23:44:35;0.93;;;0.63;;
44098;SDS011;29762;50.086;14.364;2023-04-24T23:49:54;1.13;;;0.60;;
44098;SDS011;29762;50.086;14.364;2023-04-24T23:55:14;0.60;;;0.60;;
